Terminal Aerodrome Forecast
Issued by NWS

Home | Current Version | Previous Version | Graphics & Text | Print | Product List | Glossary On
Versions: 1 2 3 4 5 6 7 8 9 10 11 12 13 14 15 16 17 18 19 20 21 22 23 24 25 26 27 28 29 30 31 32 33 34 35 36 37 38 39 40 41 42 43
000
FTUS43 KGRB 271436 AAA
TAFRHI
TAF AMD
KRHI 271436Z 2715/2812 32010G15KT 2SM -SNPL SCT006 OVC010
      TEMPO 2715/2718 1/2SM SN BKN005
     FM271800 30011G17KT 3SM -SN OVC009
     FM272000 27009KT 6SM -FZDZSN OVC011
     FM280400 25008KT P6SM BKN009
     FM280800 25006KT P6SM BKN011=

USA.gov is the U.S. government's official web portal to all federal, state and local government web resources and services.